sensor_id;sensor_type;location;lat;lon;timestamp;pressure;altitude;pressure_sealevel;temperature
20103;BMP180;10210;52.284;9.892;2023-04-06T00:01:39;100931.00;;;9.50
20103;BMP180;10210;52.284;9.892;2023-04-06T00:04:05;100938.00;;;9.60
20103;BMP180;10210;52.284;9.892;2023-04-06T00:06:31;100927.00;;;9.60
20103;BMP180;10210;52.284;9.892;2023-04-06T00:08:58;100929.00;;;9.60
20103;BMP180;10210;52.284;9.892;2023-04-06T00:11:24;100932.00;;;9.60
20103;BMP180;10210;52.284;9.892;2023-04-06T00:13:50;100919.00;;;9.50
20103;BMP180;10210;52.284;9.892;2023-04-06T00:16:16;100914.00;;;9.50
20103;BMP180;10210;52.284;9.892;2023-04-06T00:18:42;100923.00;;;9.40
20103;BMP180;10210;52.284;9.892;2023-04-06T00:21:11;100920.00;;;9.20
20103;BMP180;10210;52.284;9.892;2023-04-06T00:23:40;100919.00;;;9.10
20103;BMP180;10210;52.284;9.892;2023-04-06T00:26:06;100917.00;;;9.00
20103;BMP180;10210;52.284;9.892;2023-04-06T00:28:31;100913.00;;;9.00
20103;BMP180;10210;52.284;9.892;2023-04-06T00:30:57;100900.00;;;8.90
20103;BMP180;10210;52.284;9.892;2023-04-06T00:33:23;100906.00;;;8.90
20103;BMP180;10210;52.284;9.892;2023-04-06T00:35:49;100905.00;;;8.90
20103;BMP180;10210;52.284;9.892;2023-04-06T00:38:15;100899.00;;;8.80
20103;BMP180;10210;52.284;9.892;2023-04-06T00:40:43;100911.00;;;8.80
20103;BMP180;10210;52.284;9.892;2023-04-06T00:43:11;100902.00;;;8.90
20103;BMP180;10210;52.284;9.892;2023-04-06T00:45:39;100902.00;;;8.90
20103;BMP180;10210;52.284;9.892;2023-04-06T00:48:06;100903.00;;;8.90
20103;BMP180;10210;52.284;9.892;2023-04-06T00:50:33;100890.00;;;9.00
20103;BMP180;10210;52.284;9.892;2023-04-06T00:53:00;100903.00;;;8.90
20103;BMP180;10210;52.284;9.892;2023-04-06T00:55:27;100895.00;;;8.90
20103;BMP180;10210;52.284;9.892;2023-04-06T00:57:53;100894.00;;;8.90
20103;BMP180;10210;52.284;9.892;2023-04-06T01:00:20;100889.00;;;8.90
20103;BMP180;10210;52.284;9.892;2023-04-06T01:02:46;100890.00;;;8.90
20103;BMP180;10210;52.284;9.892;2023-04-06T01:05:13;100888.00;;;8.90
20103;BMP180;10210;52.284;9.892;2023-04-06T01:07:39;100881.00;;;8.80
20103;BMP180;10210;52.284;9.892;2023-04-06T01:10:05;100892.00;;;8.80
20103;BMP180;10210;52.284;9.892;2023-04-06T01:12:31;100882.00;;;8.80
20103;BMP180;10210;52.284;9.892;2023-04-06T01:14:56;100876.00;;;8.80
20103;BMP180;10210;52.284;9.892;2023-04-06T01:17:22;100867.00;;;8.80
20103;BMP180;10210;52.284;9.892;2023-04-06T01:19:48;100866.00;;;8.80
20103;BMP180;10210;52.284;9.892;2023-04-06T01:22:19;100869.00;;;8.80
20103;BMP180;10210;52.284;9.892;2023-04-06T01:24:45;100866.00;;;8.80
20103;BMP180;10210;52.284;9.892;2023-04-06T01:27:12;100866.00;;;8.90
20103;BMP180;10210;52.284;9.892;2023-04-06T01:29:39;100863.00;;;8.90
20103;BMP180;10210;52.284;9.892;2023-04-06T01:32:07;100864.00;;;8.90
20103;BMP180;10210;52.284;9.892;2023-04-06T01:34:33;100862.00;;;8.90
20103;BMP180;10210;52.284;9.892;2023-04-06T01:36:59;100859.00;;;8.90
20103;BMP180;10210;52.284;9.892;2023-04-06T01:39:25;100857.00;;;8.90
20103;BMP180;10210;52.284;9.892;2023-04-06T01:41:51;100862.00;;;8.90
20103;BMP180;10210;52.284;9.892;2023-04-06T01:44:18;100866.00;;;8.90
20103;BMP180;10210;52.284;9.892;2023-04-06T01:46:44;100856.00;;;8.90
20103;BMP180;10210;52.284;9.892;2023-04-06T01:49:11;100857.00;;;8.90
20103;BMP180;10210;52.284;9.892;2023-04-06T01:51:37;100859.00;;;8.90
20103;BMP180;10210;52.284;9.892;2023-04-06T01:54:03;100861.00;;;8.90
20103;BMP180;10210;52.284;9.892;2023-04-06T01:56:28;100857.00;;;8.90
20103;BMP180;10210;52.284;9.892;2023-04-06T01:58:54;100855.00;;;8.90
20103;BMP180;10210;52.284;9.892;2023-04-06T02:01:21;100860.00;;;8.90
20103;BMP180;10210;52.284;9.892;2023-04-06T02:03:46;100866.00;;;8.90
20103;BMP180;10210;52.284;9.892;2023-04-06T02:06:12;100849.00;;;8.90
20103;BMP180;10210;52.284;9.892;2023-04-06T02:08:37;100851.00;;;8.90
20103;BMP180;10210;52.284;9.892;2023-04-06T02:11:03;100862.00;;;8.80
20103;BMP180;10210;52.284;9.892;2023-04-06T02:13:29;100851.00;;;8.80
20103;BMP180;10210;52.284;9.892;2023-04-06T02:15:54;100867.00;;;8.80
20103;BMP180;10210;52.284;9.892;2023-04-06T02:18:20;100859.00;;;8.80
20103;BMP180;10210;52.284;9.892;2023-04-06T02:20:46;100847.00;;;8.70
20103;BMP180;10210;52.284;9.892;2023-04-06T02:23:12;100857.00;;;8.70
20103;BMP180;10210;52.284;9.892;2023-04-06T02:25:39;100844.00;;;8.70
20103;BMP180;10210;52.284;9.892;2023-04-06T02:28:04;100861.00;;;8.60
20103;BMP180;10210;52.284;9.892;2023-04-06T02:30:30;100858.00;;;8.60
20103;BMP180;10210;52.284;9.892;2023-04-06T02:33:00;100839.00;;;8.50
20103;BMP180;10210;52.284;9.892;2023-04-06T02:35:28;100851.00;;;8.50
20103;BMP180;10210;52.284;9.892;2023-04-06T02:37:54;100846.00;;;8.50
20103;BMP180;10210;52.284;9.892;2023-04-06T02:40:19;100845.00;;;8.40
20103;BMP180;10210;52.284;9.892;2023-04-06T02:42:45;100845.00;;;8.40
20103;BMP180;10210;52.284;9.892;2023-04-06T02:45:11;100846.00;;;8.40
20103;BMP180;10210;52.284;9.892;2023-04-06T02:47:36;100845.00;;;8.40
20103;BMP180;10210;52.284;9.892;2023-04-06T02:50:02;100838.00;;;8.40
20103;BMP180;10210;52.284;9.892;2023-04-06T02:52:28;100838.00;;;8.30
20103;BMP180;10210;52.284;9.892;2023-04-06T02:54:55;100839.00;;;8.40
20103;BMP180;10210;52.284;9.892;2023-04-06T02:57:20;100834.00;;;8.30
20103;BMP180;10210;52.284;9.892;2023-04-06T02:59:46;100836.00;;;8.30
20103;BMP180;10210;52.284;9.892;2023-04-06T03:02:11;100822.00;;;8.30
20103;BMP180;10210;52.284;9.892;2023-04-06T03:04:37;100834.00;;;8.20
20103;BMP180;10210;52.284;9.892;2023-04-06T03:07:03;100823.00;;;8.20
20103;BMP180;10210;52.284;9.892;2023-04-06T03:09:28;100815.00;;;8.10
20103;BMP180;10210;52.284;9.892;2023-04-06T03:11:54;100829.00;;;8.10
20103;BMP180;10210;52.284;9.892;2023-04-06T03:14:20;100828.00;;;8.00
20103;BMP180;10210;52.284;9.892;2023-04-06T03:16:48;100821.00;;;7.90
20103;BMP180;10210;52.284;9.892;2023-04-06T03:19:14;100822.00;;;7.90
20103;BMP180;10210;52.284;9.892;2023-04-06T03:21:41;100827.00;;;7.90
20103;BMP180;10210;52.284;9.892;2023-04-06T03:24:08;100832.00;;;7.90
20103;BMP180;10210;52.284;9.892;2023-04-06T03:26:33;100830.00;;;7.90
20103;BMP180;10210;52.284;9.892;2023-04-06T03:28:59;100838.00;;;7.90
20103;BMP180;10210;52.284;9.892;2023-04-06T03:31:26;100829.00;;;7.90
20103;BMP180;10210;52.284;9.892;2023-04-06T03:33:51;100817.00;;;7.80
20103;BMP180;10210;52.284;9.892;2023-04-06T03:36:18;100824.00;;;7.80
20103;BMP180;10210;52.284;9.892;2023-04-06T03:38:43;100828.00;;;7.80
20103;BMP180;10210;52.284;9.892;2023-04-06T03:41:09;100824.00;;;7.80
20103;BMP180;10210;52.284;9.892;2023-04-06T03:43:35;100830.00;;;7.80
20103;BMP180;10210;52.284;9.892;2023-04-06T03:46:01;100832.00;;;7.70
20103;BMP180;10210;52.284;9.892;2023-04-06T03:48:26;100821.00;;;7.60
20103;BMP180;10210;52.284;9.892;2023-04-06T03:50:52;100823.00;;;7.60
20103;BMP180;10210;52.284;9.892;2023-04-06T03:53:18;100835.00;;;7.50
20103;BMP180;10210;52.284;9.892;2023-04-06T03:55:44;100823.00;;;7.50
20103;BMP180;10210;52.284;9.892;2023-04-06T03:58:10;100825.00;;;7.50
20103;BMP180;10210;52.284;9.892;2023-04-06T04:00:35;100832.00;;;7.50
20103;BMP180;10210;52.284;9.892;2023-04-06T04:03:01;100827.00;;;7.50
20103;BMP180;10210;52.284;9.892;2023-04-06T04:05:28;100844.00;;;7.50
20103;BMP180;10210;52.284;9.892;2023-04-06T04:07:53;100831.00;;;7.50
20103;BMP180;10210;52.284;9.892;2023-04-06T04:10:19;100826.00;;;7.50
20103;BMP180;10210;52.284;9.892;2023-04-06T04:12:45;100828.00;;;7.40
20103;BMP180;10210;52.284;9.892;2023-04-06T04:15:10;100830.00;;;7.40
20103;BMP180;10210;52.284;9.892;2023-04-06T04:17:36;100843.00;;;7.40
20103;BMP180;10210;52.284;9.892;2023-04-06T04:20:02;100836.00;;;7.30
20103;BMP180;10210;52.284;9.892;2023-04-06T04:22:27;100831.00;;;7.30
20103;BMP180;10210;52.284;9.892;2023-04-06T04:24:53;100832.00;;;7.20
20103;BMP180;10210;52.284;9.892;2023-04-06T04:27:19;100834.00;;;7.10
20103;BMP180;10210;52.284;9.892;2023-04-06T04:29:46;100837.00;;;7.10
20103;BMP180;10210;52.284;9.892;2023-04-06T04:32:11;100829.00;;;7.10
20103;BMP180;10210;52.284;9.892;2023-04-06T04:34:37;100827.00;;;7.10
20103;BMP180;10210;52.284;9.892;2023-04-06T04:37:06;100837.00;;;7.10
20103;BMP180;10210;52.284;9.892;2023-04-06T04:39:32;100823.00;;;7.10
20103;BMP180;10210;52.284;9.892;2023-04-06T04:41:58;100831.00;;;7.10
20103;BMP180;10210;52.284;9.892;2023-04-06T04:44:23;100825.00;;;7.20
20103;BMP180;10210;52.284;9.892;2023-04-06T04:46:49;100832.00;;;7.20
20103;BMP180;10210;52.284;9.892;2023-04-06T04:49:14;100825.00;;;7.10
20103;BMP180;10210;52.284;9.892;2023-04-06T04:51:40;100832.00;;;7.10
20103;BMP180;10210;52.284;9.892;2023-04-06T04:54:06;100830.00;;;7.10
20103;BMP180;10210;52.284;9.892;2023-04-06T04:56:32;100836.00;;;7.00
20103;BMP180;10210;52.284;9.892;2023-04-06T04:58:57;100822.00;;;7.00
20103;BMP180;10210;52.284;9.892;2023-04-06T05:01:23;100827.00;;;6.90
20103;BMP180;10210;52.284;9.892;2023-04-06T05:03:48;100837.00;;;6.90
20103;BMP180;10210;52.284;9.892;2023-04-06T05:06:14;100837.00;;;6.90
20103;BMP180;10210;52.284;9.892;2023-04-06T05:08:41;100831.00;;;6.90
20103;BMP180;10210;52.284;9.892;2023-04-06T05:11:08;100835.00;;;6.90
20103;BMP180;10210;52.284;9.892;2023-04-06T05:13:34;100829.00;;;6.90
20103;BMP180;10210;52.284;9.892;2023-04-06T05:16:00;100828.00;;;6.90
20103;BMP180;10210;52.284;9.892;2023-04-06T05:18:25;100830.00;;;6.90
20103;BMP180;10210;52.284;9.892;2023-04-06T05:20:51;100833.00;;;6.80
20103;BMP180;10210;52.284;9.892;2023-04-06T05:23:17;100839.00;;;6.80
20103;BMP180;10210;52.284;9.892;2023-04-06T05:25:43;100830.00;;;6.80
20103;BMP180;10210;52.284;9.892;2023-04-06T05:28:08;100832.00;;;6.80
20103;BMP180;10210;52.284;9.892;2023-04-06T05:30:34;100819.00;;;6.80
20103;BMP180;10210;52.284;9.892;2023-04-06T05:33:02;100822.00;;;6.80
20103;BMP180;10210;52.284;9.892;2023-04-06T05:35:28;100819.00;;;7.30
20103;BMP180;10210;52.284;9.892;2023-04-06T05:37:53;100827.00;;;7.00
20103;BMP180;10210;52.284;9.892;2023-04-06T05:40:19;100818.00;;;6.90
20103;BMP180;10210;52.284;9.892;2023-04-06T05:42:45;100824.00;;;6.90
20103;BMP180;10210;52.284;9.892;2023-04-06T05:45:11;100834.00;;;6.90
20103;BMP180;10210;52.284;9.892;2023-04-06T05:47:42;100834.00;;;6.90
20103;BMP180;10210;52.284;9.892;2023-04-06T05:50:11;100829.00;;;6.90
20103;BMP180;10210;52.284;9.892;2023-04-06T05:52:36;100829.00;;;6.90
20103;BMP180;10210;52.284;9.892;2023-04-06T05:55:03;100828.00;;;6.90
20103;BMP180;10210;52.284;9.892;2023-04-06T05:57:29;100824.00;;;6.90
20103;BMP180;10210;52.284;9.892;2023-04-06T05:59:54;100817.00;;;6.90
20103;BMP180;10210;52.284;9.892;2023-04-06T06:02:21;100828.00;;;6.90
20103;BMP180;10210;52.284;9.892;2023-04-06T06:04:47;100825.00;;;6.90
20103;BMP180;10210;52.284;9.892;2023-04-06T06:07:14;100816.00;;;6.90
20103;BMP180;10210;52.284;9.892;2023-04-06T06:09:39;100826.00;;;6.90
20103;BMP180;10210;52.284;9.892;2023-04-06T06:12:05;100820.00;;;6.90
20103;BMP180;10210;52.284;9.892;2023-04-06T06:14:31;100818.00;;;7.00
20103;BMP180;10210;52.284;9.892;2023-04-06T06:16:56;100821.00;;;7.00
20103;BMP180;10210;52.284;9.892;2023-04-06T06:19:22;100820.00;;;7.10
20103;BMP180;10210;52.284;9.892;2023-04-06T06:21:49;100812.00;;;7.20
20103;BMP180;10210;52.284;9.892;2023-04-06T06:24:15;100819.00;;;7.20
20103;BMP180;10210;52.284;9.892;2023-04-06T06:26:40;100826.00;;;7.30
20103;BMP180;10210;52.284;9.892;2023-04-06T06:29:06;100826.00;;;7.40
20103;BMP180;10210;52.284;9.892;2023-04-06T06:31:32;100824.00;;;7.50
20103;BMP180;10210;52.284;9.892;2023-04-06T06:33:58;100823.00;;;7.50
20103;BMP180;10210;52.284;9.892;2023-04-06T06:36:25;100819.00;;;7.60
20103;BMP180;10210;52.284;9.892;2023-04-06T06:38:51;100824.00;;;7.70
20103;BMP180;10210;52.284;9.892;2023-04-06T06:41:17;100827.00;;;7.80
20103;BMP180;10210;52.284;9.892;2023-04-06T06:43:43;100833.00;;;7.80
20103;BMP180;10210;52.284;9.892;2023-04-06T06:46:09;100827.00;;;7.90
20103;BMP180;10210;52.284;9.892;2023-04-06T06:48:34;100828.00;;;8.00
20103;BMP180;10210;52.284;9.892;2023-04-06T06:51:01;100827.00;;;8.00
20103;BMP180;10210;52.284;9.892;2023-04-06T06:53:26;100818.00;;;8.10
20103;BMP180;10210;52.284;9.892;2023-04-06T06:55:52;100825.00;;;8.20
20103;BMP180;10210;52.284;9.892;2023-04-06T06:58:19;100822.00;;;8.20
20103;BMP180;10210;52.284;9.892;2023-04-06T07:00:47;100825.00;;;8.30
20103;BMP180;10210;52.284;9.892;2023-04-06T07:03:13;100823.00;;;8.40
20103;BMP180;10210;52.284;9.892;2023-04-06T07:05:45;100817.00;;;8.50
20103;BMP180;10210;52.284;9.892;2023-04-06T07:08:14;100815.00;;;8.60
20103;BMP180;10210;52.284;9.892;2023-04-06T07:10:40;100822.00;;;8.70
20103;BMP180;10210;52.284;9.892;2023-04-06T07:13:05;100817.00;;;8.80
20103;BMP180;10210;52.284;9.892;2023-04-06T07:15:31;100820.00;;;8.90
20103;BMP180;10210;52.284;9.892;2023-04-06T07:17:57;100816.00;;;9.00
20103;BMP180;10210;52.284;9.892;2023-04-06T07:20:22;100824.00;;;9.00
20103;BMP180;10210;52.284;9.892;2023-04-06T07:22:48;100823.00;;;9.10
20103;BMP180;10210;52.284;9.892;2023-04-06T07:25:14;100824.00;;;9.20
20103;BMP180;10210;52.284;9.892;2023-04-06T07:27:39;100820.00;;;9.30
20103;BMP180;10210;52.284;9.892;2023-04-06T07:30:06;100813.00;;;9.40
20103;BMP180;10210;52.284;9.892;2023-04-06T07:32:32;100820.00;;;9.60
20103;BMP180;10210;52.284;9.892;2023-04-06T07:34:57;100822.00;;;9.90
20103;BMP180;10210;52.284;9.892;2023-04-06T07:37:23;100831.00;;;10.40
20103;BMP180;10210;52.284;9.892;2023-04-06T07:39:49;100820.00;;;10.90
20103;BMP180;10210;52.284;9.892;2023-04-06T07:42:17;100828.00;;;11.40
20103;BMP180;10210;52.284;9.892;2023-04-06T07:44:43;100818.00;;;11.90
20103;BMP180;10210;52.284;9.892;2023-04-06T07:47:08;100823.00;;;12.50
20103;BMP180;10210;52.284;9.892;2023-04-06T07:49:34;100829.00;;;13.00
20103;BMP180;10210;52.284;9.892;2023-04-06T07:52:00;100826.00;;;13.40
20103;BMP180;10210;52.284;9.892;2023-04-06T07:54:26;100818.00;;;13.90
20103;BMP180;10210;52.284;9.892;2023-04-06T07:56:52;100827.00;;;14.30
20103;BMP180;10210;52.284;9.892;2023-04-06T07:59:17;100823.00;;;14.70
20103;BMP180;10210;52.284;9.892;2023-04-06T08:01:43;100819.00;;;15.10
20103;BMP180;10210;52.284;9.892;2023-04-06T08:04:09;100823.00;;;15.40
20103;BMP180;10210;52.284;9.892;2023-04-06T08:06:34;100829.00;;;15.80
20103;BMP180;10210;52.284;9.892;2023-04-06T08:09:02;100837.00;;;16.00
20103;BMP180;10210;52.284;9.892;2023-04-06T08:11:28;100839.00;;;16.30
20103;BMP180;10210;52.284;9.892;2023-04-06T08:13:54;100822.00;;;16.60
20103;BMP180;10210;52.284;9.892;2023-04-06T08:16:22;100836.00;;;16.90
20103;BMP180;10210;52.284;9.892;2023-04-06T08:18:48;100830.00;;;17.10
20103;BMP180;10210;52.284;9.892;2023-04-06T08:21:13;100830.00;;;17.30
20103;BMP180;10210;52.284;9.892;2023-04-06T08:23:39;100837.00;;;17.60
20103;BMP180;10210;52.284;9.892;2023-04-06T08:26:05;100827.00;;;17.70
20103;BMP180;10210;52.284;9.892;2023-04-06T08:28:31;100827.00;;;17.90
20103;BMP180;10210;52.284;9.892;2023-04-06T08:30:56;100834.00;;;18.00
20103;BMP180;10210;52.284;9.892;2023-04-06T08:33:22;100838.00;;;18.10
20103;BMP180;10210;52.284;9.892;2023-04-06T08:35:48;100838.00;;;18.30
20103;BMP180;10210;52.284;9.892;2023-04-06T08:38:13;100834.00;;;18.40
20103;BMP180;10210;52.284;9.892;2023-04-06T08:40:40;100835.00;;;18.40
20103;BMP180;10210;52.284;9.892;2023-04-06T08:43:09;100831.00;;;18.40
20103;BMP180;10210;52.284;9.892;2023-04-06T08:45:40;100826.00;;;18.50
20103;BMP180;10210;52.284;9.892;2023-04-06T08:48:12;100824.00;;;18.60
20103;BMP180;10210;52.284;9.892;2023-04-06T08:50:40;100834.00;;;18.60
20103;BMP180;10210;52.284;9.892;2023-04-06T08:53:06;100824.00;;;18.60
20103;BMP180;10210;52.284;9.892;2023-04-06T08:55:34;100826.00;;;18.70
20103;BMP180;10210;52.284;9.892;2023-04-06T08:58:00;100834.00;;;18.70
20103;BMP180;10210;52.284;9.892;2023-04-06T09:00:28;100829.00;;;18.70
20103;BMP180;10210;52.284;9.892;2023-04-06T09:02:57;100813.00;;;18.70
20103;BMP180;10210;52.284;9.892;2023-04-06T09:05:25;100828.00;;;18.70
20103;BMP180;10210;52.284;9.892;2023-04-06T09:07:51;100830.00;;;18.70
20103;BMP180;10210;52.284;9.892;2023-04-06T09:10:17;100825.00;;;18.80
20103;BMP180;10210;52.284;9.892;2023-04-06T09:12:43;100821.00;;;18.80
20103;BMP180;10210;52.284;9.892;2023-04-06T09:15:20;100821.00;;;18.90
20103;BMP180;10210;52.284;9.892;2023-04-06T09:17:46;100831.00;;;18.90
20103;BMP180;10210;52.284;9.892;2023-04-06T09:20:12;100824.00;;;18.90
20103;BMP180;10210;52.284;9.892;2023-04-06T09:22:39;100824.00;;;18.80
20103;BMP180;10210;52.284;9.892;2023-04-06T09:25:08;100824.00;;;18.80
20103;BMP180;10210;52.284;9.892;2023-04-06T09:27:36;100829.00;;;18.80
20103;BMP180;10210;52.284;9.892;2023-04-06T09:30:11;100816.00;;;18.70
20103;BMP180;10210;52.284;9.892;2023-04-06T09:32:53;100825.00;;;18.60
20103;BMP180;10210;52.284;9.892;2023-04-06T09:35:19;100822.00;;;18.70
20103;BMP180;10210;52.284;9.892;2023-04-06T09:37:47;100824.00;;;18.70
20103;BMP180;10210;52.284;9.892;2023-04-06T09:40:14;100823.00;;;18.70
20103;BMP180;10210;52.284;9.892;2023-04-06T09:42:41;100818.00;;;18.70
20103;BMP180;10210;52.284;9.892;2023-04-06T09:45:08;100810.00;;;18.70
20103;BMP180;10210;52.284;9.892;2023-04-06T09:47:37;100814.00;;;18.70
20103;BMP180;10210;52.284;9.892;2023-04-06T09:50:07;100814.00;;;18.70
20103;BMP180;10210;52.284;9.892;2023-04-06T09:52:41;100813.00;;;18.70
20103;BMP180;10210;52.284;9.892;2023-04-06T09:55:08;100808.00;;;18.80
20103;BMP180;10210;52.284;9.892;2023-04-06T09:57:52;100809.00;;;18.80
20103;BMP180;10210;52.284;9.892;2023-04-06T10:00:22;100797.00;;;18.80
20103;BMP180;10210;52.284;9.892;2023-04-06T10:05:56;100803.00;;;18.80
20103;BMP180;10210;52.284;9.892;2023-04-06T10:08:27;100797.00;;;18.80
20103;BMP180;10210;52.284;9.892;2023-04-06T10:10:55;100791.00;;;18.80
20103;BMP180;10210;52.284;9.892;2023-04-06T10:13:24;100788.00;;;18.80
20103;BMP180;10210;52.284;9.892;2023-04-06T10:15:52;100783.00;;;18.70
20103;BMP180;10210;52.284;9.892;2023-04-06T10:18:18;100793.00;;;18.70
20103;BMP180;10210;52.284;9.892;2023-04-06T10:21:11;100787.00;;;18.60
20103;BMP180;10210;52.284;9.892;2023-04-06T10:23:52;100788.00;;;18.60
20103;BMP180;10210;52.284;9.892;2023-04-06T10:26:22;100784.00;;;18.50
20103;BMP180;10210;52.284;9.892;2023-04-06T10:28:49;100782.00;;;18.40
20103;BMP180;10210;52.284;9.892;2023-04-06T10:31:25;100793.00;;;18.40
20103;BMP180;10210;52.284;9.892;2023-04-06T10:36:27;100788.00;;;18.20
20103;BMP180;10210;52.284;9.892;2023-04-06T10:38:59;100778.00;;;18.00
20103;BMP180;10210;52.284;9.892;2023-04-06T10:41:36;100781.00;;;17.90
20103;BMP180;10210;52.284;9.892;2023-04-06T10:44:06;100780.00;;;17.80
20103;BMP180;10210;52.284;9.892;2023-04-06T10:46:33;100784.00;;;17.70
20103;BMP180;10210;52.284;9.892;2023-04-06T10:49:11;100784.00;;;17.70
20103;BMP180;10210;52.284;9.892;2023-04-06T10:51:39;100783.00;;;17.70
20103;BMP180;10210;52.284;9.892;2023-04-06T10:54:06;100781.00;;;17.70
20103;BMP180;10210;52.284;9.892;2023-04-06T10:56:36;100776.00;;;17.60
20103;BMP180;10210;52.284;9.892;2023-04-06T10:59:02;100779.00;;;17.50
20103;BMP180;10210;52.284;9.892;2023-04-06T11:01:28;100776.00;;;17.50
20103;BMP180;10210;52.284;9.892;2023-04-06T11:03:56;100771.00;;;17.50
20103;BMP180;10210;52.284;9.892;2023-04-06T11:06:30;100773.00;;;17.50
20103;BMP180;10210;52.284;9.892;2023-04-06T11:08:59;100774.00;;;17.50
20103;BMP180;10210;52.284;9.892;2023-04-06T11:11:29;100770.00;;;17.50
20103;BMP180;10210;52.284;9.892;2023-04-06T11:13:58;100762.00;;;17.50
20103;BMP180;10210;52.284;9.892;2023-04-06T11:16:27;100755.00;;;17.50
20103;BMP180;10210;52.284;9.892;2023-04-06T11:19:01;100766.00;;;17.50
20103;BMP180;10210;52.284;9.892;2023-04-06T11:21:46;100764.00;;;17.50
20103;BMP180;10210;52.284;9.892;2023-04-06T11:24:14;100769.00;;;17.50
20103;BMP180;10210;52.284;9.892;2023-04-06T11:26:48;100773.00;;;17.50
20103;BMP180;10210;52.284;9.892;2023-04-06T11:29:22;100760.00;;;17.60
20103;BMP180;10210;52.284;9.892;2023-04-06T11:31:51;100765.00;;;17.60
20103;BMP180;10210;52.284;9.892;2023-04-06T11:34:20;100757.00;;;17.70
20103;BMP180;10210;52.284;9.892;2023-04-06T11:36:58;100753.00;;;17.70
20103;BMP180;10210;52.284;9.892;2023-04-06T11:39:29;100766.00;;;17.70
20103;BMP180;10210;52.284;9.892;2023-04-06T11:42:01;100751.00;;;17.70
20103;BMP180;10210;52.284;9.892;2023-04-06T11:47:04;100755.00;;;17.80
20103;BMP180;10210;52.284;9.892;2023-04-06T11:49:33;100750.00;;;17.80
20103;BMP180;10210;52.284;9.892;2023-04-06T11:52:02;100750.00;;;17.90
20103;BMP180;10210;52.284;9.892;2023-04-06T11:54:38;100747.00;;;17.90
20103;BMP180;10210;52.284;9.892;2023-04-06T11:57:05;100745.00;;;17.90
20103;BMP180;10210;52.284;9.892;2023-04-06T11:59:34;100748.00;;;17.90
20103;BMP180;10210;52.284;9.892;2023-04-06T12:02:02;100738.00;;;18.00
20103;BMP180;10210;52.284;9.892;2023-04-06T12:04:32;100750.00;;;18.00
20103;BMP180;10210;52.284;9.892;2023-04-06T12:06:58;100739.00;;;18.10
20103;BMP180;10210;52.284;9.892;2023-04-06T12:09:24;100746.00;;;18.10
20103;BMP180;10210;52.284;9.892;2023-04-06T12:11:49;100736.00;;;18.20
20103;BMP180;10210;52.284;9.892;2023-04-06T12:14:17;100735.00;;;18.20
20103;BMP180;10210;52.284;9.892;2023-04-06T12:16:43;100741.00;;;18.20
20103;BMP180;10210;52.284;9.892;2023-04-06T12:19:09;100741.00;;;18.20
20103;BMP180;10210;52.284;9.892;2023-04-06T12:21:35;100741.00;;;18.30
20103;BMP180;10210;52.284;9.892;2023-04-06T12:24:03;100729.00;;;18.30
20103;BMP180;10210;52.284;9.892;2023-04-06T12:26:30;100728.00;;;18.40
20103;BMP180;10210;52.284;9.892;2023-04-06T12:28:56;100733.00;;;18.40
20103;BMP180;10210;52.284;9.892;2023-04-06T12:31:23;100729.00;;;18.40
20103;BMP180;10210;52.284;9.892;2023-04-06T12:33:51;100725.00;;;18.50
20103;BMP180;10210;52.284;9.892;2023-04-06T12:36:19;100722.00;;;18.60
20103;BMP180;10210;52.284;9.892;2023-04-06T12:38:47;100721.00;;;18.60
20103;BMP180;10210;52.284;9.892;2023-04-06T12:41:13;100724.00;;;18.70
20103;BMP180;10210;52.284;9.892;2023-04-06T12:43:44;100729.00;;;18.80
20103;BMP180;10210;52.284;9.892;2023-04-06T12:46:11;100722.00;;;18.80
20103;BMP180;10210;52.284;9.892;2023-04-06T12:48:37;100723.00;;;18.80
20103;BMP180;10210;52.284;9.892;2023-04-06T12:51:05;100717.00;;;18.80
20103;BMP180;10210;52.284;9.892;2023-04-06T12:53:33;100724.00;;;18.90
20103;BMP180;10210;52.284;9.892;2023-04-06T12:55:59;100707.00;;;18.90
20103;BMP180;10210;52.284;9.892;2023-04-06T12:58:26;100711.00;;;19.00
20103;BMP180;10210;52.284;9.892;2023-04-06T13:00:54;100701.00;;;19.00
20103;BMP180;10210;52.284;9.892;2023-04-06T13:03:22;100700.00;;;19.00
20103;BMP180;10210;52.284;9.892;2023-04-06T13:05:49;100696.00;;;19.10
20103;BMP180;10210;52.284;9.892;2023-04-06T13:08:17;100696.00;;;19.10
20103;BMP180;10210;52.284;9.892;2023-04-06T13:10:51;100697.00;;;19.10
20103;BMP180;10210;52.284;9.892;2023-04-06T13:13:26;100694.00;;;19.10
20103;BMP180;10210;52.284;9.892;2023-04-06T13:16:08;100701.00;;;19.10
20103;BMP180;10210;52.284;9.892;2023-04-06T13:18:35;100689.00;;;19.10
20103;BMP180;10210;52.284;9.892;2023-04-06T13:21:04;100684.00;;;19.20
20103;BMP180;10210;52.284;9.892;2023-04-06T13:23:31;100679.00;;;19.20
20103;BMP180;10210;52.284;9.892;2023-04-06T13:26:04;100678.00;;;19.20
20103;BMP180;10210;52.284;9.892;2023-04-06T13:28:32;100678.00;;;19.30
20103;BMP180;10210;52.284;9.892;2023-04-06T13:30:59;100667.00;;;19.30
20103;BMP180;10210;52.284;9.892;2023-04-06T13:33:26;100669.00;;;19.40
20103;BMP180;10210;52.284;9.892;2023-04-06T13:35:52;100667.00;;;19.40
20103;BMP180;10210;52.284;9.892;2023-04-06T13:38:19;100661.00;;;19.50
20103;BMP180;10210;52.284;9.892;2023-04-06T13:40:45;100665.00;;;19.50
20103;BMP180;10210;52.284;9.892;2023-04-06T13:43:10;100661.00;;;19.60
20103;BMP180;10210;52.284;9.892;2023-04-06T13:45:37;100662.00;;;19.60
20103;BMP180;10210;52.284;9.892;2023-04-06T13:48:04;100657.00;;;19.70
20103;BMP180;10210;52.284;9.892;2023-04-06T13:50:30;100655.00;;;19.70
20103;BMP180;10210;52.284;9.892;2023-04-06T13:52:56;100655.00;;;19.70
20103;BMP180;10210;52.284;9.892;2023-04-06T13:55:22;100655.00;;;19.70
20103;BMP180;10210;52.284;9.892;2023-04-06T13:57:50;100657.00;;;19.80
20103;BMP180;10210;52.284;9.892;2023-04-06T14:00:17;100657.00;;;19.80
20103;BMP180;10210;52.284;9.892;2023-04-06T14:02:42;100648.00;;;19.90
20103;BMP180;10210;52.284;9.892;2023-04-06T14:05:09;100647.00;;;19.90
20103;BMP180;10210;52.284;9.892;2023-04-06T14:07:35;100642.00;;;19.90
20103;BMP180;10210;52.284;9.892;2023-04-06T14:10:01;100649.00;;;19.90
20103;BMP180;10210;52.284;9.892;2023-04-06T14:12:27;100651.00;;;20.00